Little German, Pennsylvania
Current Conditions -  °F | °C
As of 6:11 AM on Tuesday 21 Oct 2014 (Local Time) from KCXY Reporting Station
Haze Haze  
Wind Chill: 51°   Ceiling: 400
Heat Index: 51°   Visibility: 1.5mi
Dew Point: 50°   Wind: 3mph
Humidity: 96%   Direction: 170°S
Pressure: 29.86"   Gusts: NA
Location:  40.3632°N, 77.2671°W
Report Text: KCXY 211011Z AUTO 17003KT 1 1/2SM BR OVC004 11/10 A2986 RMK AO2 T01060100
Loading
Personal Weather Stations






























Interactive Weather Map
Tropical Storm Tracking
New forecast layout! Learn more

10-Day Weather Forecast

Advertisements
Track Severe Weather on mobile